createdAt,value
2018-08-12T00:01:03.394Z,1.83
2018-08-12T00:03:31.326Z,1.40
2018-08-12T00:05:59.343Z,1.50
2018-08-12T00:08:27.164Z,1.33
2018-08-12T00:10:55.054Z,1.50
2018-08-12T00:13:22.870Z,1.40
2018-08-12T00:15:50.740Z,1.20
2018-08-12T00:18:18.579Z,1.20
2018-08-12T00:20:46.434Z,1.03
2018-08-12T00:23:14.261Z,1.13
2018-08-12T00:25:42.098Z,1.60
2018-08-12T00:28:10.050Z,1.70
2018-08-12T00:30:37.873Z,1.43
2018-08-12T00:33:05.722Z,1.40
2018-08-12T00:35:33.551Z,1.53
2018-08-12T00:38:01.408Z,1.80
2018-08-12T00:40:29.259Z,1.40
2018-08-12T00:42:57.111Z,1.60
2018-08-12T00:45:24.967Z,1.50
2018-08-12T00:47:52.924Z,1.40
2018-08-12T00:50:20.845Z,1.40
2018-08-12T00:52:48.741Z,1.53
2018-08-12T00:55:17.330Z,1.40
2018-08-12T00:57:46.195Z,1.63
2018-08-12T01:00:15.704Z,1.00
2018-08-12T01:02:43.570Z,1.33
2018-08-12T01:05:12.991Z,1.40
2018-08-12T01:07:41.320Z,1.27
2018-08-12T01:10:10.063Z,1.57
2018-08-12T01:12:38.154Z,1.40
2018-08-12T01:15:07.582Z,1.30
2018-08-12T01:17:35.414Z,1.10
2018-08-12T01:20:03.430Z,1.53
2018-08-12T01:22:31.277Z,1.97
2018-08-12T01:24:59.116Z,1.60
2018-08-12T01:27:26.934Z,1.23
2018-08-12T01:29:54.773Z,1.70
2018-08-12T01:32:22.590Z,1.50
2018-08-12T01:34:50.477Z,1.40
2018-08-12T01:37:18.327Z,1.60
2018-08-12T01:39:46.267Z,1.10
2018-08-12T01:42:14.102Z,1.20
2018-08-12T01:44:41.931Z,1.50
2018-08-12T01:47:10.075Z,1.27
2018-08-12T01:49:37.899Z,1.37
2018-08-12T01:52:05.782Z,1.03
2018-08-12T01:54:33.626Z,1.20
2018-08-12T01:57:01.496Z,1.20
2018-08-12T01:59:29.454Z,1.37
2018-08-12T02:01:57.319Z,1.43
2018-08-12T02:04:25.397Z,1.10
2018-08-12T02:06:53.226Z,0.93
2018-08-12T02:09:21.123Z,0.90
2018-08-12T02:11:49.320Z,1.10
2018-08-12T02:14:17.158Z,1.10
2018-08-12T02:16:45.014Z,1.23
2018-08-12T02:19:12.859Z,1.07
2018-08-12T02:21:40.712Z,1.23
2018-08-12T02:24:08.646Z,1.20
2018-08-12T02:26:36.471Z,1.17
2018-08-12T02:29:04.362Z,1.10
2018-08-12T02:31:32.171Z,1.50
2018-08-12T02:33:59.994Z,1.40
2018-08-12T02:36:27.823Z,1.30
2018-08-12T02:38:55.666Z,1.40
2018-08-12T02:41:23.554Z,1.20
2018-08-12T02:43:51.395Z,1.23
2018-08-12T02:46:19.243Z,1.43
2018-08-12T02:48:47.091Z,1.03
2018-08-12T02:51:14.913Z,1.57
2018-08-12T02:53:42.756Z,1.77
2018-08-12T02:56:10.740Z,2.33
2018-08-12T02:58:38.560Z,1.70
2018-08-12T03:01:06.747Z,1.77
2018-08-12T03:03:34.571Z,1.90
2018-08-12T03:06:02.414Z,1.53
2018-08-12T03:08:30.239Z,1.23
2018-08-12T03:10:58.092Z,1.67
2018-08-12T03:13:26.051Z,1.70
2018-08-12T03:15:53.897Z,1.60
2018-08-12T03:18:21.741Z,1.50
2018-08-12T03:20:49.601Z,1.60
2018-08-12T03:23:17.438Z,1.80
2018-08-12T03:25:45.250Z,1.40
2018-08-12T03:28:13.708Z,1.70
2018-08-12T03:30:41.634Z,1.43
2018-08-12T03:33:09.486Z,1.37
2018-08-12T03:35:37.340Z,1.20
2018-08-12T03:38:05.730Z,1.30
2018-08-12T03:40:33.576Z,1.13
2018-08-12T03:43:01.455Z,1.30
2018-08-12T03:45:29.374Z,1.30
2018-08-12T03:47:57.231Z,1.10
2018-08-12T03:50:25.047Z,1.30
2018-08-12T03:52:52.882Z,1.10
2018-08-12T03:55:20.724Z,1.00
2018-08-12T03:57:49.094Z,1.00
2018-08-12T04:00:18.918Z,1.13
2018-08-12T04:02:48.094Z,1.20
2018-08-12T04:05:16.535Z,1.40
2018-08-12T04:07:44.369Z,1.40
2018-08-12T04:10:12.348Z,1.33
2018-08-12T04:12:40.691Z,1.33
2018-08-12T04:15:09.607Z,1.40
2018-08-12T04:17:37.450Z,1.30
2018-08-12T04:20:05.999Z,1.20
2018-08-12T04:22:33.822Z,1.20
2018-08-12T04:25:01.853Z,1.70
2018-08-12T04:27:29.682Z,1.50
2018-08-12T04:29:57.544Z,1.60
2018-08-12T04:32:25.400Z,1.60
2018-08-12T04:34:53.279Z,1.60
2018-08-12T04:37:21.244Z,1.73
2018-08-12T04:39:49.212Z,1.60
2018-08-12T04:42:17.050Z,1.67
2018-08-12T04:44:44.878Z,1.90
2018-08-12T04:47:12.714Z,1.50
2018-08-12T04:49:40.544Z,2.07
2018-08-12T04:52:08.367Z,1.80
2018-08-12T04:54:36.217Z,1.60
2018-08-12T04:57:04.101Z,1.57
2018-08-12T04:59:31.936Z,1.53
2018-08-12T05:01:59.785Z,1.90
2018-08-12T05:04:27.667Z,1.50
2018-08-12T05:06:55.519Z,1.97
2018-08-12T05:09:23.322Z,1.60
2018-08-12T05:11:52.158Z,1.80
2018-08-12T05:14:20.035Z,1.80
2018-08-12T05:16:47.875Z,1.70
2018-08-12T05:19:15.704Z,2.20
2018-08-12T05:21:43.519Z,1.93
2018-08-12T05:24:11.350Z,2.27
2018-08-12T05:26:39.191Z,1.90
2018-08-12T05:29:07.010Z,2.10
2018-08-12T05:31:34.829Z,1.70
2018-08-12T05:34:02.672Z,2.37
2018-08-12T05:36:30.569Z,2.20
2018-08-12T05:38:58.414Z,2.10
2018-08-12T05:41:26.271Z,1.90
2018-08-12T05:43:54.100Z,2.30
2018-08-12T05:46:21.976Z,2.17
2018-08-12T05:48:49.807Z,2.07
2018-08-12T05:51:17.639Z,1.97
2018-08-12T05:53:45.492Z,2.03
2018-08-12T05:56:13.314Z,2.70
2018-08-12T05:58:41.158Z,2.17
2018-08-12T06:01:09.020Z,2.13
2018-08-12T06:03:36.844Z,1.77
2018-08-12T06:06:04.694Z,2.00
2018-08-12T06:08:32.610Z,30.43
2018-08-12T06:11:00.427Z,4.23
2018-08-12T06:13:28.291Z,2.50
2018-08-12T06:15:56.175Z,1.63
2018-08-12T06:18:24.070Z,1.97
2018-08-12T06:20:52.166Z,1.57
2018-08-12T06:23:20.001Z,1.77
2018-08-12T06:25:47.883Z,2.10
2018-08-12T06:28:15.753Z,2.00
2018-08-12T06:30:43.636Z,1.77
2018-08-12T06:33:12.268Z,1.50
2018-08-12T06:35:40.132Z,1.70
2018-08-12T06:38:08.012Z,1.60
2018-08-12T06:40:35.890Z,1.30
2018-08-12T06:43:03.907Z,1.40
2018-08-12T06:45:31.728Z,1.33
2018-08-12T06:47:59.556Z,1.27
2018-08-12T06:50:27.696Z,1.57
2018-08-12T06:52:55.754Z,1.20
2018-08-12T06:55:23.587Z,1.53
2018-08-12T06:57:51.426Z,1.17
2018-08-12T07:00:19.655Z,1.17
2018-08-12T07:02:47.831Z,1.20
2018-08-12T07:05:15.686Z,1.47
2018-08-12T07:07:43.940Z,1.13
2018-08-12T07:10:13.527Z,1.30
2018-08-12T07:12:42.201Z,1.40
2018-08-12T07:15:11.896Z,1.47
2018-08-12T07:17:40.022Z,1.37
2018-08-12T07:20:09.067Z,1.20
2018-08-12T07:22:36.902Z,1.10
2018-08-12T07:25:05.248Z,1.40
2018-08-12T07:27:33.078Z,1.43
2018-08-12T07:30:00.899Z,1.67
2018-08-12T07:32:28.712Z,1.50
2018-08-12T07:34:56.526Z,1.70
2018-08-12T07:37:24.383Z,1.73
2018-08-12T07:39:52.212Z,1.80
2018-08-12T07:42:20.034Z,1.83
2018-08-12T07:44:48.078Z,1.50
2018-08-12T07:47:15.914Z,1.90
2018-08-12T07:49:43.835Z,1.83
2018-08-12T07:52:11.670Z,2.03
2018-08-12T07:54:39.501Z,1.73
2018-08-12T07:57:07.331Z,1.77
2018-08-12T07:59:35.203Z,1.77
2018-08-12T08:02:03.188Z,1.77
2018-08-12T08:04:31.049Z,1.37
2018-08-12T08:06:58.943Z,1.30
2018-08-12T08:09:26.799Z,1.33
2018-08-12T08:11:54.625Z,1.40
2018-08-12T08:14:22.476Z,1.70
2018-08-12T08:16:50.387Z,1.70
2018-08-12T08:19:18.213Z,1.30
2018-08-12T08:21:46.051Z,1.20
2018-08-12T08:24:13.879Z,1.20
2018-08-12T08:26:41.820Z,1.20
2018-08-12T08:29:09.755Z,1.23
2018-08-12T08:31:37.744Z,1.20
2018-08-12T08:34:05.575Z,1.20
2018-08-12T08:36:33.427Z,1.20
2018-08-12T08:39:01.279Z,1.13
2018-08-12T08:41:29.192Z,1.20
2018-08-12T08:43:57.080Z,1.40
2018-08-12T08:46:24.955Z,1.17
2018-08-12T08:48:52.943Z,1.10
2018-08-12T08:51:20.819Z,1.27
2018-08-12T08:53:48.677Z,1.40
2018-08-12T08:56:16.525Z,1.03
2018-08-12T08:58:44.371Z,1.30
2018-08-12T09:01:12.243Z,1.43
2018-08-12T09:03:40.090Z,1.30
2018-08-12T09:06:07.943Z,0.93
2018-08-12T09:08:35.998Z,1.33
2018-08-12T09:11:03.623Z,1.20
2018-08-12T09:13:31.435Z,0.97
2018-08-12T09:15:59.393Z,1.63
2018-08-12T09:18:27.215Z,1.43
2018-08-12T09:20:55.174Z,1.30
2018-08-12T09:23:23.566Z,1.43
2018-08-12T09:25:51.413Z,1.27
2018-08-12T09:28:19.252Z,1.30
2018-08-12T09:30:47.664Z,1.40
2018-08-12T09:33:15.504Z,1.10
2018-08-12T09:35:43.396Z,1.10
2018-08-12T09:38:11.578Z,1.30
2018-08-12T09:40:40.548Z,1.27
2018-08-12T09:43:08.632Z,1.63
2018-08-12T09:45:36.667Z,1.00
2018-08-12T09:48:04.763Z,1.40
2018-08-12T09:50:33.471Z,1.37
2018-08-12T09:53:02.286Z,1.30
2018-08-12T09:55:30.162Z,1.33
2018-08-12T09:57:58.051Z,1.60
2018-08-12T10:00:27.400Z,1.70
2018-08-12T10:02:56.382Z,1.30
2018-08-12T10:05:24.435Z,1.40
2018-08-12T10:07:52.278Z,1.47
2018-08-12T10:10:20.120Z,1.20
2018-08-12T10:12:48.069Z,1.00
2018-08-12T10:15:16.566Z,1.10
2018-08-12T10:17:46.738Z,1.50
2018-08-12T10:20:14.678Z,1.20
2018-08-12T10:22:42.845Z,1.07
2018-08-12T10:25:11.014Z,1.40
2018-08-12T10:27:39.060Z,1.20
2018-08-12T10:30:08.123Z,1.10
2018-08-12T10:32:36.088Z,1.07
2018-08-12T10:35:04.069Z,1.03
2018-08-12T10:37:32.044Z,0.90
2018-08-12T10:40:00.021Z,1.00
2018-08-12T10:42:28.086Z,1.00
2018-08-12T10:44:56.037Z,1.33
2018-08-12T10:47:23.889Z,1.00
2018-08-12T10:49:51.835Z,1.40
2018-08-12T10:52:19.739Z,1.27
2018-08-12T10:54:47.787Z,1.40
2018-08-12T10:57:16.019Z,1.30
2018-08-12T10:59:44.001Z,1.10
2018-08-12T11:02:11.994Z,1.50
2018-08-12T11:04:40.422Z,1.37
2018-08-12T11:07:08.335Z,1.80
2018-08-12T11:09:36.310Z,1.33
2018-08-12T11:12:04.505Z,1.90
2018-08-12T11:14:32.360Z,2.40
2018-08-12T11:17:00.206Z,1.80
2018-08-12T11:19:28.117Z,1.50
2018-08-12T11:21:56.119Z,1.50
2018-08-12T11:24:24.001Z,1.90
2018-08-12T11:26:51.836Z,2.03
2018-08-12T11:29:19.822Z,1.93
2018-08-12T11:31:47.741Z,1.70
2018-08-12T11:34:15.751Z,1.30
2018-08-12T11:36:43.624Z,1.23
2018-08-12T11:39:12.456Z,1.80
2018-08-12T11:41:40.393Z,1.17
2018-08-12T11:44:08.686Z,0.93
2018-08-12T11:46:36.551Z,1.00
2018-08-12T11:49:04.541Z,1.07
2018-08-12T11:51:32.370Z,1.13
2018-08-12T11:54:00.312Z,1.10
2018-08-12T11:56:28.251Z,1.10
2018-08-12T11:58:56.110Z,0.93
2018-08-12T12:01:24.417Z,1.00
2018-08-12T12:03:52.646Z,1.20
2018-08-12T12:06:20.554Z,1.00
2018-08-12T12:08:48.515Z,1.00
2018-08-12T12:11:16.375Z,1.10
2018-08-12T12:13:44.741Z,0.87
2018-08-12T12:16:12.663Z,1.00
2018-08-12T12:18:40.607Z,1.10
2018-08-12T12:21:08.554Z,1.30
2018-08-12T12:23:36.500Z,0.90
2018-08-12T12:26:04.441Z,0.90
2018-08-12T12:28:32.355Z,1.17
2018-08-12T12:31:00.299Z,0.80
2018-08-12T12:33:28.517Z,1.10
2018-08-12T12:35:56.461Z,1.10
2018-08-12T12:38:24.339Z,1.10
2018-08-12T12:40:52.246Z,1.10
2018-08-12T12:43:20.123Z,0.80
2018-08-12T12:45:48.138Z,1.07
2018-08-12T12:48:16.103Z,0.97
2018-08-12T12:50:44.617Z,1.30
2018-08-12T12:53:12.720Z,0.87
2018-08-12T12:55:40.754Z,1.03
2018-08-12T12:58:08.987Z,1.10
2018-08-12T13:00:36.942Z,0.90
2018-08-12T13:03:04.802Z,1.03
2018-08-12T13:05:33.464Z,1.00
2018-08-12T13:08:01.698Z,1.20
2018-08-12T13:10:29.549Z,1.10
2018-08-12T13:12:57.445Z,1.17
2018-08-12T13:15:25.421Z,1.20
2018-08-12T13:17:53.385Z,0.90
2018-08-12T13:20:22.335Z,1.00
2018-08-12T13:22:51.008Z,0.90
2018-08-12T13:25:20.880Z,1.30
2018-08-12T13:27:48.970Z,1.00
2018-08-12T13:30:17.785Z,1.10
2018-08-12T13:32:46.656Z,0.90
2018-08-12T13:35:14.775Z,1.37
2018-08-12T13:37:42.827Z,1.20
2018-08-12T13:40:12.764Z,1.20
2018-08-12T13:42:41.630Z,1.20
2018-08-12T13:45:10.942Z,1.20
2018-08-12T13:47:39.304Z,1.30
2018-08-12T13:50:08.918Z,0.90
2018-08-12T13:52:37.085Z,1.23
2018-08-12T13:55:05.680Z,1.00
2018-08-12T13:57:33.563Z,0.90
2018-08-12T14:00:01.412Z,1.37
2018-08-12T14:02:29.295Z,1.20
2018-08-12T14:04:57.171Z,1.30
2018-08-12T14:07:25.015Z,1.00
2018-08-12T14:09:52.898Z,1.40
2018-08-12T14:12:20.751Z,0.97
2018-08-12T14:14:48.591Z,2.10
2018-08-12T14:17:16.454Z,1.20
2018-08-12T14:19:44.370Z,1.20
2018-08-12T14:22:12.188Z,1.17
2018-08-12T14:24:40.047Z,1.30
2018-08-12T14:27:07.965Z,1.30
2018-08-12T14:29:35.818Z,1.10
2018-08-12T14:32:03.789Z,1.30
2018-08-12T14:34:31.621Z,1.10
2018-08-12T14:36:59.590Z,1.30
2018-08-12T14:39:27.480Z,1.20
2018-08-12T14:41:55.691Z,1.10
2018-08-12T14:44:23.537Z,1.37
2018-08-12T14:46:51.445Z,1.10
2018-08-12T14:49:19.471Z,1.47
2018-08-12T14:51:47.460Z,1.10
2018-08-12T14:54:15.388Z,1.43
2018-08-12T14:56:43.376Z,1.30
2018-08-12T14:59:11.219Z,1.20
2018-08-12T15:01:39.165Z,1.17
2018-08-12T15:04:07.050Z,1.10
2018-08-12T15:06:34.884Z,1.27
2018-08-12T15:09:02.806Z,1.30
2018-08-12T15:11:30.627Z,1.40
2018-08-12T15:13:58.542Z,1.07
2018-08-12T15:16:26.379Z,1.30
2018-08-12T15:18:54.218Z,1.30
2018-08-12T15:21:22.119Z,1.50
2018-08-12T15:23:50.109Z,1.23
2018-08-12T15:26:18.267Z,1.60
2018-08-12T15:28:46.196Z,1.63
2018-08-12T15:31:14.040Z,1.47
2018-08-12T15:33:41.885Z,1.47
2018-08-12T15:36:09.832Z,2.10
2018-08-12T15:38:37.694Z,1.50
2018-08-12T15:41:05.537Z,1.73
2018-08-12T15:43:33.399Z,1.37
2018-08-12T15:46:01.804Z,1.40
2018-08-12T15:48:29.654Z,1.30
2018-08-12T15:50:57.716Z,1.20
2018-08-12T15:53:25.574Z,1.93
2018-08-12T15:55:53.479Z,1.50
2018-08-12T15:58:21.419Z,1.40
2018-08-12T16:00:49.443Z,1.40
2018-08-12T16:03:17.355Z,1.40
2018-08-12T16:05:45.296Z,1.50
2018-08-12T16:08:13.259Z,1.47
2018-08-12T16:10:41.200Z,1.70
2018-08-12T16:13:09.054Z,1.70
2018-08-12T16:15:36.887Z,1.37
2018-08-12T16:18:05.354Z,1.67
2018-08-12T16:20:33.207Z,1.83
2018-08-12T16:23:01.067Z,1.60
2018-08-12T16:25:29.046Z,1.47
2018-08-12T16:27:56.924Z,1.67
2018-08-12T16:30:24.773Z,1.80
2018-08-12T16:32:52.626Z,1.57
2018-08-12T16:35:20.523Z,1.90
2018-08-12T16:37:48.816Z,1.50
2018-08-12T16:40:17.849Z,2.10
2018-08-12T16:42:46.135Z,1.90
2018-08-12T16:45:15.112Z,1.50
2018-08-12T16:47:43.371Z,1.83
2018-08-12T16:50:11.803Z,1.73
2018-08-12T16:52:40.139Z,1.77
2018-08-12T16:55:09.487Z,2.43
2018-08-12T16:57:37.325Z,1.73
2018-08-12T17:00:06.936Z,1.60
2018-08-12T17:02:34.826Z,1.80
2018-08-12T17:05:02.638Z,1.70
2018-08-12T17:07:30.522Z,1.90
2018-08-12T17:09:58.380Z,1.93
2018-08-12T17:12:26.231Z,1.90
2018-08-12T17:14:54.076Z,2.03
2018-08-12T17:17:21.995Z,2.00
2018-08-12T17:19:49.895Z,1.97
2018-08-12T17:22:17.834Z,2.60
2018-08-12T17:24:45.691Z,1.67
2018-08-12T17:27:13.536Z,2.10
2018-08-12T17:29:41.465Z,1.80
2018-08-12T17:32:09.351Z,2.20
2018-08-12T17:34:37.183Z,1.77
2018-08-12T17:37:05.021Z,2.10
2018-08-12T17:39:32.846Z,2.10
2018-08-12T17:42:00.673Z,2.13
2018-08-12T17:44:28.530Z,2.10
2018-08-12T17:46:56.389Z,2.20
2018-08-12T17:49:24.251Z,2.20
2018-08-12T17:51:52.120Z,1.83
2018-08-12T17:54:20.752Z,2.30
2018-08-12T17:56:48.651Z,2.10
2018-08-12T17:59:16.537Z,2.20
2018-08-12T18:01:44.832Z,2.13
2018-08-12T18:04:12.703Z,2.53
2018-08-12T18:06:40.563Z,2.57
2018-08-12T18:09:08.982Z,2.57
2018-08-12T18:11:36.895Z,2.60
2018-08-12T18:14:04.886Z,2.57
2018-08-12T18:16:32.728Z,2.60
2018-08-12T18:19:00.740Z,2.70
2018-08-12T18:21:28.626Z,2.23
2018-08-12T18:23:56.542Z,2.83
2018-08-12T18:26:24.437Z,2.90
2018-08-12T18:28:52.339Z,3.13
2018-08-12T18:31:20.426Z,2.60
2018-08-12T18:33:48.463Z,2.43
2018-08-12T18:36:16.377Z,2.57
2018-08-12T18:38:44.359Z,2.20
2018-08-12T18:41:12.275Z,2.80
2018-08-12T18:43:40.184Z,3.10
2018-08-12T18:46:08.176Z,2.60
2018-08-12T18:48:36.010Z,2.80
2018-08-12T18:51:03.957Z,2.97
2018-08-12T18:53:32.014Z,2.73
2018-08-12T18:55:59.945Z,3.03
2018-08-12T18:58:27.929Z,3.23
2018-08-12T19:00:55.924Z,3.03
2018-08-12T19:03:23.860Z,3.20
2018-08-12T19:05:52.006Z,2.97
2018-08-12T19:08:20.007Z,2.40
2018-08-12T19:10:48.029Z,4.13
2018-08-12T19:13:15.903Z,3.50
2018-08-12T19:15:43.856Z,3.10
2018-08-12T19:18:11.703Z,2.93
2018-08-12T19:20:39.791Z,3.50
2018-08-12T19:23:07.742Z,3.83
2018-08-12T19:25:35.608Z,3.13
2018-08-12T19:28:03.614Z,3.40
2018-08-12T19:30:31.743Z,2.63
2018-08-12T19:32:59.741Z,3.50
2018-08-12T19:35:27.673Z,3.30
2018-08-12T19:37:55.634Z,2.93
2018-08-12T19:40:23.496Z,3.07
2018-08-12T19:42:51.417Z,3.23
2018-08-12T19:45:19.314Z,3.07
2018-08-12T19:47:47.263Z,2.90
2018-08-12T19:50:15.346Z,3.40
2018-08-12T19:52:43.266Z,3.03
2018-08-12T19:55:11.164Z,3.07
2018-08-12T19:57:38.995Z,2.77
2018-08-12T20:00:08.255Z,3.17
2018-08-12T20:02:36.809Z,3.30
2018-08-12T20:05:05.011Z,2.67
2018-08-12T20:07:32.848Z,3.70
2018-08-12T20:10:00.726Z,3.40
2018-08-12T20:12:28.616Z,3.40
2018-08-12T20:14:56.615Z,3.10
2018-08-12T20:17:24.478Z,2.80
2018-08-12T20:19:52.292Z,3.57
2018-08-12T20:22:20.305Z,2.87
2018-08-12T20:24:48.257Z,3.40
2018-08-12T20:27:16.094Z,3.30
2018-08-12T20:29:44.507Z,3.43
2018-08-12T20:32:12.446Z,3.20
2018-08-12T20:34:40.657Z,3.03
2018-08-12T20:37:08.498Z,3.27
2018-08-12T20:39:36.389Z,3.10
2018-08-12T20:42:04.239Z,4.13
2018-08-12T20:44:32.082Z,3.73
2018-08-12T20:46:59.925Z,3.87
2018-08-12T20:49:28.257Z,3.50
2018-08-12T20:51:56.611Z,3.30
2018-08-12T20:54:25.851Z,3.53
2018-08-12T20:56:53.832Z,3.53
2018-08-12T20:59:22.038Z,3.33
2018-08-12T21:01:50.274Z,3.73
2018-08-12T21:04:18.843Z,3.90
2018-08-12T21:06:46.864Z,3.57
2018-08-12T21:09:15.070Z,3.80
2018-08-12T21:11:43.065Z,3.90
2018-08-12T21:14:10.939Z,3.80
2018-08-12T21:16:38.816Z,4.07
2018-08-12T21:19:07.213Z,4.20
2018-08-12T21:21:35.419Z,3.53
2018-08-12T21:24:03.500Z,4.53
2018-08-12T21:26:31.356Z,3.67
2018-08-12T21:28:59.181Z,4.40
2018-08-12T21:31:27.090Z,4.37
2018-08-12T21:33:55.067Z,4.63
2018-08-12T21:36:23.135Z,4.10
2018-08-12T21:38:51.016Z,5.00
2018-08-12T21:41:18.847Z,4.87
2018-08-12T21:43:46.815Z,4.30
2018-08-12T21:46:14.980Z,4.60
2018-08-12T21:48:43.022Z,4.70
2018-08-12T21:51:10.958Z,5.13
2018-08-12T21:53:38.792Z,5.07
2018-08-12T21:56:07.058Z,4.90
2018-08-12T21:58:35.019Z,5.03
2018-08-12T22:01:02.990Z,5.37
2018-08-12T22:03:30.880Z,5.23
2018-08-12T22:05:58.799Z,5.33
2018-08-12T22:08:26.981Z,5.30
2018-08-12T22:10:55.191Z,5.27
2018-08-12T22:13:23.090Z,5.97
2018-08-12T22:15:51.105Z,6.40
2018-08-12T22:18:18.940Z,6.17
2018-08-12T22:20:46.763Z,6.30
2018-08-12T22:23:14.579Z,6.40
2018-08-12T22:25:42.413Z,6.87
2018-08-12T22:28:10.234Z,5.93
2018-08-12T22:30:38.570Z,6.30
2018-08-12T22:33:06.529Z,5.83
2018-08-12T22:35:34.418Z,5.53
2018-08-12T22:38:02.446Z,5.80
2018-08-12T22:40:30.404Z,5.30
2018-08-12T22:42:58.338Z,4.93
2018-08-12T22:45:26.209Z,5.10
2018-08-12T22:47:54.065Z,5.23
2018-08-12T22:50:21.904Z,6.17
2018-08-12T22:52:49.746Z,7.10
2018-08-12T22:55:17.594Z,5.53
2018-08-12T22:57:45.494Z,5.20
2018-08-12T23:00:14.872Z,5.10
2018-08-12T23:02:42.707Z,5.77
2018-08-12T23:05:10.622Z,6.07
2018-08-12T23:07:38.459Z,7.13
2018-08-12T23:10:07.406Z,6.73
2018-08-12T23:12:35.241Z,7.27
2018-08-12T23:15:08.455Z,7.93
2018-08-12T23:17:36.300Z,9.47
2018-08-12T23:20:04.202Z,8.70
2018-08-12T23:22:32.041Z,8.53
2018-08-12T23:24:59.872Z,8.57
2018-08-12T23:27:27.712Z,9.30
2018-08-12T23:29:55.533Z,8.60
2018-08-12T23:32:23.366Z,9.20
2018-08-12T23:34:51.188Z,8.60
2018-08-12T23:37:19.025Z,8.60
2018-08-12T23:39:46.856Z,8.70
2018-08-12T23:42:14.682Z,8.40
2018-08-12T23:44:42.552Z,9.70
2018-08-12T23:47:10.422Z,8.60
2018-08-12T23:49:38.231Z,9.03
2018-08-12T23:52:06.067Z,9.60
2018-08-12T23:54:33.919Z,9.20
2018-08-12T23:57:01.743Z,8.40
2018-08-12T23:59:29.565Z,8.87
